• Join FlightAware (Why Join?)
  • Login
  • US Flag 
08:30AM EDT


 

Airport Tracker/Info


-or-


 

Live Flight TrackerFlight Track Log ✈ SWA1867 ✈ 22-Dec-2013 ✈ KBUR - KSJC

Flight Track Log - Related Links

Times and Time Zones

All times are in EST time to prevent confusion due to time zone crossing. See the SWA1867 flight status page for this flight to view local times or setup timezone preferences in your user account.

Time Position Orientation Groundspeed Altitude Reporting Facility
EST Latitude Longitude Course Direction KTS MPH feet Rate Location/Type
02:05PM 34.1775 -118.3578 226° Southwest 163 188 2,100  Level Los Angeles Center
02:06PM 34.1389 -118.4058 226° Southwest 203 234 4,900 2,640 Climbing Los Angeles Center
02:07PM 34.1669 -118.4769 296° West 258 297 7,600 3,480 Climbing Los Angeles Center
02:08PM 34.2381 -118.5169 335° Northwest 279 321 12,200 2,640 Climbing Los Angeles Center
02:09PM 34.3092 -118.5592 334° Northwest 284 327 13,100 840 Climbing Los Angeles Center
02:10PM 34.3975 -118.6122 334° Northwest 297 342 14,000 960 Climbing Los Angeles Center
02:11PM 34.4700 -118.6569 333° Northwest 294 338 15,100 2,100 Climbing Los Angeles Center
02:12PM 34.5442 -118.6997 335° Northwest 295 339 18,400 2,640 Climbing Los Angeles Center
02:13PM 34.6250 -118.7508 333° Northwest 328 377 20,600 2,160 Climbing Los Angeles Center
02:14PM 34.7186 -118.8111 332° Northwest 382 440 22,900 2,400 Climbing Los Angeles Center
02:15PM 34.8156 -118.8711 333° Northwest 390 449 25,600 2,700 Climbing Los Angeles Center
02:16PM 34.9281 -118.9639 326° Northwest 400 460 28,500 2,460 Climbing Los Angeles Center
02:17PM 35.0206 -119.0425 325° Northwest 405 466 30,700 2,280 Climbing Los Angeles Center
02:18PM 35.0867 -119.1517 307° West 410 472 33,300 1,980 Climbing Los Angeles Center
02:20PM 35.1444 -119.2647 302° West 399 459 35,200 1,560 Climbing Los Angeles Center
02:21PM 35.2133 -119.4011 302° West 394 453 37,300 1,680 Climbing Los Angeles Center
02:22PM 35.2803 -119.5350 302° West 389 448 39,100 1,260 Climbing Los Angeles Center
02:23PM 35.3475 -119.6675 302° West 385 443 40,000 420 Climbing Los Angeles Center
02:24PM 35.4036 -119.7792 302° West 388 447 40,000  Level Los Angeles Center
02:25PM 35.4597 -119.8897 302° West 383 441 40,000  Level Los Angeles Center
02:26PM 35.5156 -120.0031 301° West 390 449 40,000  Level Los Angeles Center
02:27PM 35.5819 -120.1367 301° West 391 450 40,000  Level Los Angeles Center
02:28PM 35.6378 -120.2536 300° West 393 452 40,000  Level Los Angeles Center
02:29PM 35.6922 -120.3608 302° West 387 445 40,000  Level Los Angeles Center
02:30PM 35.7619 -120.4564 312° West 383 441 40,000  Level Los Angeles Center
02:31PM 35.8181 -120.5325 312° West 378 435 40,000  Level Los Angeles Center
02:33PM 35.9161 -120.6661 312° West 376 433 40,000 -1,020 Level Los Angeles Center
02:34PM 35.9983 -120.7794 312° West 371 427 37,700 -2,400 Descending Los Angeles Center
02:35PM 36.0675 -120.8756 312° West 376 433 35,000 -2,880 Descending Oakland Center
02:36PM 36.1408 -120.9750 312° West 390 449 31,700 -3,180 Descending Oakland Center
02:37PM 36.2167 -121.0811 312° West 407 468 28,600 -3,180 Descending Oakland Center
02:38PM 36.3100 -121.2119 312° West 420 483 25,300 -2,940 Descending Oakland Center
02:39PM 36.3858 -121.3183 312° West 415 478 22,600 -2,400 Descending Oakland Center
02:40PM 36.4567 -121.4186 311° West 392 451 20,400 -2,400 Descending Oakland Center
02:41PM 36.5506 -121.4681 337° Northwest 371 427 17,800 -2,580 Descending Oakland Center
02:42PM 36.6517 -121.4867 352° North 365 420 15,200 -2,340 Descending Oakland Center
02:43PM 36.7472 -121.5056 351° North 352 405 13,000 -2,580 Descending Oakland Center
02:44PM 36.8431 -121.5464 341° North 342 394 10,000 -1,740 Descending Oakland Center
02:45PM 36.9197 -121.5875 337° Northwest 306 352 9,500 -1,080 Descending Oakland Center
02:46PM 36.9892 -121.6244 337° Northwest 278 320 7,800 -1,620 Descending Oakland Center
02:47PM 37.0575 -121.6592 338° Northwest 267 307 6,300 -1,380 Descending Oakland Center
02:48PM 37.1367 -121.6986 338° Northwest 259 298 5,000 -1,020 Descending Oakland Center
02:49PM 37.1928 -121.7367 332° Northwest 247 284 4,300 -900 Descending Oakland Center
02:50PM 37.2311 -121.7889 313° West 219 252 3,200 -1,080 Descending Oakland Center
02:51PM 37.2711 -121.8308 320° Northwest 202 232 2,200 -900 Descending Oakland Center
02:52PM 37.3061 -121.8697 319° Northwest 186 214 1,400 -780 Descending Oakland Center
02:53PM 37.3328 -121.8956 322° Northwest 148 170 700 9,060 Descending Oakland Center
02:54PM 37.3614 -121.9264 319° Northwest 137 158 20,000 18,660 Climbing Oakland Center
02:56PM 37.3627 -121.9291 North  Level Estimated